Time;durP1;ratioP1;P1;durP2;ratioP2;P2;SDS_P1;SDS_P2;PMS_P1;PMS_P2;Temp;Humidity;BMP_temperature;BMP_pressure;BME280_temperature;BME280_humidity;BME280_pressure;Samples;Min_cycle;Max_cycle;Signal;HPM_P1;HPM_P2
2024/01/17 00:00:25;;;;;;;;;;;1.60;99.90;;;;;;4989348;28;19932;-68
2024/01/17 00:02:53;;;;;;;;;;;1.60;99.90;;;;;;4988881;28;19933;-68
2024/01/17 00:05:22;;;;;;;;;;;1.50;99.90;;;;;;4997119;28;20033;-69
2024/01/17 00:07:49;;;;;;;;;;;1.30;99.90;;;;;;5008226;28;19979;-68
2024/01/17 00:10:18;;;;;;;;;;;1.20;99.90;;;;;;4997218;28;19926;-68
2024/01/17 00:12:46;;;;;;;;;;;1.10;99.90;;;;;;4988518;28;20306;-68
2024/01/17 00:15:14;;;;;;;;;;;1.30;99.90;;;;;;4988762;28;19929;-68
2024/01/17 00:17:43;;;;;;;;;;;1.20;99.90;;;;;;4988518;28;19975;-69
2024/01/17 00:20:11;;;;;;;;;;;1.30;99.90;;;;;;4996625;28;19926;-69
2024/01/17 00:22:39;;;;;;;;;;;1.40;99.90;;;;;;4988339;28;20008;-68
2024/01/17 00:25:08;;;;;;;;;;;1.40;99.90;;;;;;4990072;28;19937;-68
2024/01/17 00:27:36;;;;;;;;;;;1.30;99.90;;;;;;4994455;28;19977;-68
2024/01/17 00:30:05;;;;;;;;;;;1.30;99.90;;;;;;4988643;28;20404;-69
2024/01/17 00:32:34;;;;;;;;;;;1.10;99.90;;;;;;4988177;28;19926;-69
2024/01/17 00:35:03;;;;;;;;;;;0.90;99.90;;;;;;4993733;28;20041;-70
2024/01/17 00:37:31;;;;;;;;;;;0.80;99.90;;;;;;5007702;28;19926;-68
2024/01/17 00:39:59;;;;;;;;;;;0.80;99.90;;;;;;4994727;28;20028;-67
2024/01/17 00:42:27;;;;;;;;;;;0.60;99.90;;;;;;4992648;28;19926;-68
2024/01/17 00:44:55;;;;;;;;;;;0.10;99.90;;;;;;4999812;28;19926;-66
2024/01/17 00:47:23;;;;;;;;;;;0.00;99.90;;;;;;4995089;28;20091;-68
2024/01/17 00:49:51;;;;;;;;;;;0.00;99.90;;;;;;4999278;28;20404;-68
2024/01/17 00:52:20;;;;;;;;;;;0.10;99.90;;;;;;5005571;28;19929;-67
2024/01/17 00:54:48;;;;;;;;;;;0.20;99.90;;;;;;4991705;28;19932;-67
2024/01/17 00:57:15;;;;;;;;;;;0.30;99.90;;;;;;4995899;28;19994;-67
2024/01/17 00:59:43;;;;;;;;;;;0.20;99.90;;;;;;4991896;28;19932;-67
2024/01/17 01:02:11;;;;;;;;;;;0.30;99.90;;;;;;4991454;28;19975;-67
2024/01/17 01:04:39;;;;;;;;;;;0.50;99.90;;;;;;4993901;28;19934;-67
2024/01/17 01:07:06;;;;;;;;;;;0.70;99.90;;;;;;5010728;28;19926;-67
2024/01/17 01:09:35;;;;;;;;;;;0.90;99.90;;;;;;4995088;28;19926;-67
2024/01/17 01:12:04;;;;;;;;;;;1.00;99.90;;;;;;4994537;28;19926;-67
2024/01/17 01:14:32;;;;;;;;;;;0.80;99.90;;;;;;4998667;28;20416;-67
2024/01/17 01:16:59;;;;;;;;;;;0.80;99.90;;;;;;4991319;28;20316;-68
2024/01/17 01:19:27;;;;;;;;;;;0.80;99.90;;;;;;4991545;28;19926;-67
2024/01/17 01:21:55;;;;;;;;;;;0.80;99.90;;;;;;4991311;28;19934;-67
2024/01/17 01:24:23;;;;;;;;;;;1.10;99.90;;;;;;4993860;28;20296;-67
2024/01/17 01:26:52;;;;;;;;;;;1.10;99.90;;;;;;4998693;28;19926;-67
2024/01/17 01:29:20;;;;;;;;;;;1.20;99.90;;;;;;4997535;28;19979;-66
2024/01/17 01:31:48;;;;;;;;;;;1.30;99.90;;;;;;4991214;28;19933;-67
2024/01/17 01:34:15;;;;;;;;;;;1.30;99.90;;;;;;4990907;28;19933;-67
2024/01/17 01:36:44;;;;;;;;;;;1.30;99.90;;;;;;5010094;28;19925;-67
2024/01/17 01:39:14;;;;;;;;;;;1.30;99.90;;;;;;5001104;28;19972;-67
2024/01/17 01:41:42;;;;;;;;;;;1.40;99.90;;;;;;4991486;28;20359;-67
2024/01/17 01:44:11;;;;;;;;;;;1.30;99.90;;;;;;4993577;28;19926;-67
2024/01/17 01:46:39;;;;;;;;;;;1.30;99.90;;;;;;4997511;28;20450;-67
2024/01/17 01:49:07;;;;;;;;;;;1.20;99.90;;;;;;4990927;28;19926;-67
2024/01/17 01:51:35;;;;;;;;;;;1.20;99.90;;;;;;4990503;28;19929;-67
2024/01/17 01:54:04;;;;;;;;;;;1.20;99.90;;;;;;4990762;28;20300;-67
2024/01/17 01:56:33;;;;;;;;;;;1.00;99.90;;;;;;5000987;28;19925;-67
2024/01/17 01:59:02;;;;;;;;;;;0.60;99.90;;;;;;4994706;28;19975;-67
2024/01/17 02:01:31;;;;;;;;;;;0.10;99.90;;;;;;4990703;28;20036;-66
2024/01/17 02:04:00;;;;;;;;;;;0.00;99.90;;;;;;4990646;28;20312;-66
2024/01/17 02:06:30;;;;;;;;;;;0.00;99.90;;;;;;5007395;28;19943;-67
2024/01/17 02:08:57;;;;;;;;;;;0.00;99.90;;;;;;5003292;28;19929;-67
2024/01/17 02:11:28;;;;;;;;;;;0.00;99.90;;;;;;4990166;28;19926;-67
2024/01/17 02:13:55;;;;;;;;;;;-0.10;99.90;;;;;;4990969;28;19926;-67
2024/01/17 02:16:24;;;;;;;;;;;-0.40;99.90;;;;;;4995398;28;19930;-68
2024/01/17 02:18:53;;;;;;;;;;;-0.60;99.90;;;;;;4990423;28;19956;-67
2024/01/17 02:21:22;;;;;;;;;;;-0.80;99.90;;;;;;4998076;28;19926;-67
2024/01/17 02:23:51;;;;;;;;;;;-0.80;99.90;;;;;;4990654;28;19933;-67
2024/01/17 02:26:20;;;;;;;;;;;-0.90;99.90;;;;;;4990088;28;20002;-67
2024/01/17 02:28:47;;;;;;;;;;;-1.10;99.90;;;;;;4990306;28;19925;-66
2024/01/17 02:31:15;;;;;;;;;;;-1.20;99.90;;;;;;4990189;28;20388;-67
2024/01/17 02:33:44;;;;;;;;;;;-1.20;99.90;;;;;;4990205;28;19971;-66
2024/01/17 02:36:12;;;;;;;;;;;-1.10;99.90;;;;;;5004624;28;19926;-66
2024/01/17 02:38:40;;;;;;;;;;;-0.70;99.90;;;;;;5005594;28;20231;-65
2024/01/17 02:41:09;;;;;;;;;;;-0.50;99.90;;;;;;4997923;28;19925;-68
2024/01/17 02:43:37;;;;;;;;;;;-0.20;99.90;;;;;;4997723;28;19933;-68
2024/01/17 02:46:05;;;;;;;;;;;-0.10;99.90;;;;;;4990345;28;19930;-68
2024/01/17 02:48:33;;;;;;;;;;;-0.20;99.90;;;;;;4989932;28;19994;-68
2024/01/17 02:51:01;;;;;;;;;;;-0.40;99.90;;;;;;4989918;28;20399;-68
2024/01/17 02:53:29;;;;;;;;;;;-0.60;99.90;;;;;;4989777;28;19926;-68
2024/01/17 02:55:56;;;;;;;;;;;-0.80;99.90;;;;;;4989763;28;19932;-68
2024/01/17 02:58:24;;;;;;;;;;;-0.80;99.90;;;;;;4989829;28;20396;-68
2024/01/17 03:00:53;;;;;;;;;;;-0.50;99.90;;;;;;4989734;28;19929;-68
2024/01/17 03:03:20;;;;;;;;;;;-0.60;99.90;;;;;;4989805;28;20414;-68
2024/01/17 03:05:48;;;;;;;;;;;-0.40;99.90;;;;;;5001023;28;19925;-68
2024/01/17 03:08:16;;;;;;;;;;;-0.40;99.90;;;;;;5008704;28;20023;-68
2024/01/17 03:10:44;;;;;;;;;;;-0.40;99.90;;;;;;4989424;28;20316;-68
2024/01/17 03:13:14;;;;;;;;;;;-0.40;99.90;;;;;;4989480;28;19929;-66
2024/01/17 03:15:43;;;;;;;;;;;-0.20;99.90;;;;;;4989856;28;19979;-68
2024/01/17 03:18:13;;;;;;;;;;;0.10;99.90;;;;;;4989369;28;19930;-68
2024/01/17 03:20:41;;;;;;;;;;;0.20;99.90;;;;;;4989362;28;19930;-68
2024/01/17 03:23:09;;;;;;;;;;;0.40;99.90;;;;;;4989500;28;19932;-68
2024/01/17 03:25:37;;;;;;;;;;;0.40;99.90;;;;;;4989433;28;19926;-68
2024/01/17 03:28:05;;;;;;;;;;;0.30;99.90;;;;;;4989402;28;19926;-70
2024/01/17 03:30:34;;;;;;;;;;;0.20;99.90;;;;;;4988894;28;19925;-67
2024/01/17 03:33:03;;;;;;;;;;;0.20;99.90;;;;;;4989246;28;19991;-68
2024/01/17 03:35:31;;;;;;;;;;;0.30;99.90;;;;;;4998702;28;19925;-68
2024/01/17 03:37:59;;;;;;;;;;;0.30;99.90;;;;;;5008462;28;19925;-68
2024/01/17 03:40:27;;;;;;;;;;;0.30;99.90;;;;;;4998773;28;19926;-68
2024/01/17 03:42:54;;;;;;;;;;;0.30;99.90;;;;;;4989372;28;19926;-68
2024/01/17 03:45:22;;;;;;;;;;;-0.20;99.90;;;;;;4990412;28;19926;-68
2024/01/17 03:47:50;;;;;;;;;;;-0.50;99.90;;;;;;4989344;28;20339;-67
2024/01/17 03:50:19;;;;;;;;;;;-0.20;99.90;;;;;;4988768;28;20336;-68
2024/01/17 03:52:48;;;;;;;;;;;0.00;99.90;;;;;;4988921;28;19925;-68
2024/01/17 03:55:16;;;;;;;;;;;0.10;99.90;;;;;;4989145;28;19932;-68
2024/01/17 03:57:43;;;;;;;;;;;0.20;99.90;;;;;;4996909;28;20296;-68
2024/01/17 04:00:11;;;;;;;;;;;0.10;99.90;;;;;;4996914;28;19936;-68
2024/01/17 04:02:39;;;;;;;;;;;-0.10;99.90;;;;;;5012628;23;19932;-71
2024/01/17 04:05:07;;;;;;;;;;;-0.30;99.90;;;;;;4992069;28;19955;-73
2024/01/17 04:07:37;;;;;;;;;;;-0.20;99.90;;;;;;4989456;28;19926;-73
2024/01/17 04:10:06;;;;;;;;;;;-0.30;99.90;;;;;;4981695;28;19930;-73
2024/01/17 04:12:33;;;;;;;;;;;-0.60;99.90;;;;;;5073746;28;19924;-73
2024/01/17 04:15:01;;;;;;;;;;;-0.90;99.90;;;;;;4981456;28;19933;-73
2024/01/17 04:17:29;;;;;;;;;;;-0.80;99.90;;;;;;4978278;28;20444;-73
2024/01/17 04:19:57;;;;;;;;;;;-0.90;99.90;;;;;;4975338;28;19926;-73
2024/01/17 04:22:25;;;;;;;;;;;-0.70;99.90;;;;;;5018887;28;19930;-73
2024/01/17 04:24:54;;;;;;;;;;;-0.90;99.90;;;;;;5049254;28;19928;-73
2024/01/17 04:27:22;;;;;;;;;;;-0.50;99.90;;;;;;4995533;28;19926;-73
2024/01/17 04:29:49;;;;;;;;;;;-0.30;99.90;;;;;;4980533;28;20296;-73
2024/01/17 04:32:17;;;;;;;;;;;-0.10;99.90;;;;;;5023543;28;20314;-73
2024/01/17 04:34:45;;;;;;;;;;;0.10;99.90;;;;;;5024216;28;19932;-73
2024/01/17 04:37:13;;;;;;;;;;;0.20;99.90;;;;;;4989048;28;19925;-73
2024/01/17 04:39:41;;;;;;;;;;;0.30;99.90;;;;;;4981133;28;20343;-74
2024/01/17 04:42:10;;;;;;;;;;;0.30;99.90;;;;;;4982753;28;19926;-73
2024/01/17 04:44:38;;;;;;;;;;;0.30;99.90;;;;;;5075073;28;19956;-73
2024/01/17 04:47:06;;;;;;;;;;;0.20;99.90;;;;;;5009214;28;19936;-73
2024/01/17 04:49:33;;;;;;;;;;;0.30;99.90;;;;;;4972955;28;19930;-74
2024/01/17 04:52:03;;;;;;;;;;;0.00;99.90;;;;;;4988784;28;19932;-74
2024/01/17 04:54:31;;;;;;;;;;;-0.40;99.90;;;;;;4979595;28;19926;-73
2024/01/17 04:56:59;;;;;;;;;;;-0.70;99.90;;;;;;5019777;28;19926;-73
2024/01/17 04:59:28;;;;;;;;;;;-1.10;99.90;;;;;;4985711;28;20471;-74
2024/01/17 05:01:56;;;;;;;;;;;-1.40;99.90;;;;;;4998322;28;20018;-75
2024/01/17 05:04:23;;;;;;;;;;;-1.30;99.90;;;;;;4988911;28;19931;-72
2024/01/17 05:06:51;;;;;;;;;;;-1.50;99.90;;;;;;4994811;28;19973;-73
2024/01/17 05:09:20;;;;;;;;;;;-1.70;99.90;;;;;;5021209;28;19924;-73
2024/01/17 05:11:49;;;;;;;;;;;-1.90;99.90;;;;;;5023063;28;19979;-73
2024/01/17 05:14:16;;;;;;;;;;;-1.80;99.90;;;;;;5026840;28;19932;-73
2024/01/17 05:16:46;;;;;;;;;;;-1.80;99.90;;;;;;5072022;28;20389;-76
2024/01/17 05:19:13;;;;;;;;;;;-1.30;99.90;;;;;;4977309;28;20019;-73
2024/01/17 05:21:44;;;;;;;;;;;-0.80;99.90;;;;;;4994323;28;20023;-72
2024/01/17 05:24:12;;;;;;;;;;;-0.40;99.90;;;;;;5005636;28;19926;-72
2024/01/17 05:26:40;;;;;;;;;;;-0.30;99.90;;;;;;5072470;28;19924;-71
2024/01/17 05:29:08;;;;;;;;;;;0.00;99.90;;;;;;4975306;28;19926;-71
2024/01/17 05:31:36;;;;;;;;;;;0.00;99.90;;;;;;5074789;28;19935;-73
2024/01/17 05:34:05;;;;;;;;;;;0.20;99.90;;;;;;4983592;28;20004;-72
2024/01/17 05:36:33;;;;;;;;;;;0.10;99.90;;;;;;4990599;28;19926;-71
2024/01/17 05:39:01;;;;;;;;;;;0.30;99.90;;;;;;5010039;28;19955;-71
2024/01/17 05:41:29;;;;;;;;;;;0.30;99.90;;;;;;5050984;28;19932;-71
2024/01/17 05:43:56;;;;;;;;;;;0.20;99.90;;;;;;5024989;28;19966;-72
2024/01/17 05:46:24;;;;;;;;;;;0.00;99.90;;;;;;5026764;28;20383;-71
2024/01/17 05:48:52;;;;;;;;;;;-0.20;99.90;;;;;;5028897;28;19931;-73
2024/01/17 05:51:21;;;;;;;;;;;-0.10;99.90;;;;;;5025184;28;19928;-71
2024/01/17 05:53:49;;;;;;;;;;;-0.30;99.90;;;;;;5000702;28;19931;-71
2024/01/17 05:56:17;;;;;;;;;;;-0.20;99.90;;;;;;5051010;28;19967;-71
2024/01/17 05:58:45;;;;;;;;;;;-0.10;99.90;;;;;;5038109;28;19929;-72
2024/01/17 06:01:13;;;;;;;;;;;-0.40;99.90;;;;;;5065964;28;19924;-73
2024/01/17 06:03:41;;;;;;;;;;;-0.60;99.90;;;;;;5040720;28;19973;-71
2024/01/17 06:06:09;;;;;;;;;;;-0.60;99.90;;;;;;4984864;28;19926;-71
2024/01/17 06:08:39;;;;;;;;;;;-0.50;99.90;;;;;;4980681;28;19962;-71
2024/01/17 06:11:11;;;;;;;;;;;-0.40;99.90;;;;;;5033216;28;19926;-71
2024/01/17 06:13:38;;;;;;;;;;;0.00;99.90;;;;;;5040657;28;19935;-71
2024/01/17 06:16:06;;;;;;;;;;;0.00;99.90;;;;;;5065989;28;20384;-68
2024/01/17 06:18:34;;;;;;;;;;;-0.30;99.90;;;;;;4985064;28;19933;-68
2024/01/17 06:21:02;;;;;;;;;;;-0.60;99.90;;;;;;4979103;28;20315;-69
2024/01/17 06:23:30;;;;;;;;;;;-1.00;99.90;;;;;;4978852;28;19940;-72
2024/01/17 06:25:59;;;;;;;;;;;-1.40;99.90;;;;;;4979197;28;19930;-70
2024/01/17 06:28:27;;;;;;;;;;;-1.60;99.90;;;;;;4978834;28;20044;-70
2024/01/17 06:30:55;;;;;;;;;;;-1.80;99.90;;;;;;4978432;28;19930;-71
2024/01/17 06:33:23;;;;;;;;;;;-1.70;99.90;;;;;;4981649;28;19941;-68
2024/01/17 06:35:51;;;;;;;;;;;-1.90;99.90;;;;;;4979052;28;19965;-68
2024/01/17 06:38:19;;;;;;;;;;;-2.00;99.90;;;;;;4977559;28;19937;-70
2024/01/17 06:40:46;;;;;;;;;;;-2.00;99.90;;;;;;4978651;28;19941;-70
2024/01/17 06:43:16;;;;;;;;;;;-2.00;99.90;;;;;;4979597;28;19941;-70
2024/01/17 06:45:44;;;;;;;;;;;-1.90;99.90;;;;;;4979159;28;20316;-70
2024/01/17 06:48:11;;;;;;;;;;;-1.90;99.90;;;;;;4979419;28;19957;-69
2024/01/17 06:50:39;;;;;;;;;;;-2.00;99.90;;;;;;4979433;28;19934;-70
2024/01/17 06:53:07;;;;;;;;;;;-2.00;99.90;;;;;;4979868;28;19934;-71
2024/01/17 06:55:35;;;;;;;;;;;-2.00;99.90;;;;;;4979340;28;19937;-69
2024/01/17 06:58:03;;;;;;;;;;;-2.10;99.90;;;;;;4979479;28;20826;-73
2024/01/17 07:00:32;;;;;;;;;;;-2.30;99.90;;;;;;4979838;28;19980;-71
2024/01/17 07:03:01;;;;;;;;;;;-2.30;99.90;;;;;;4979113;28;19969;-69
2024/01/17 07:05:29;;;;;;;;;;;-2.40;99.90;;;;;;4978847;28;19930;-72
2024/01/17 07:07:57;;;;;;;;;;;-2.50;99.90;;;;;;4979644;28;19933;-73
2024/01/17 07:10:25;;;;;;;;;;;-2.50;99.90;;;;;;4979533;28;20026;-73
2024/01/17 07:12:53;;;;;;;;;;;-2.60;99.90;;;;;;4978103;28;20328;-68
2024/01/17 07:15:22;;;;;;;;;;;-2.70;99.90;;;;;;4979349;28;19952;-71
2024/01/17 07:17:51;;;;;;;;;;;-2.70;99.90;;;;;;4979456;28;19945;-71
2024/01/17 07:20:19;;;;;;;;;;;-2.60;99.90;;;;;;4979243;28;20030;-71
2024/01/17 07:22:46;;;;;;;;;;;-2.60;99.90;;;;;;4977743;28;20108;-69
2024/01/17 07:25:14;;;;;;;;;;;-2.50;99.90;;;;;;4979356;28;19938;-68
2024/01/17 07:27:44;;;;;;;;;;;-2.60;99.90;;;;;;4978860;28;19937;-69
2024/01/17 07:30:12;;;;;;;;;;;-2.60;99.90;;;;;;4978620;28;20317;-69
2024/01/17 07:32:41;;;;;;;;;;;-2.60;99.90;;;;;;4978394;28;19930;-69
2024/01/17 07:35:10;;;;;;;;;;;-2.60;99.90;;;;;;4978748;28;20593;-68
2024/01/17 07:37:38;;;;;;;;;;;-2.60;99.90;;;;;;4977745;28;19934;-68
2024/01/17 07:40:09;;;;;;;;;;;-2.50;99.90;;;;;;4978641;28;19934;-68
2024/01/17 07:42:37;;;;;;;;;;;-2.50;99.90;;;;;;4977809;28;20037;-73
2024/01/17 07:45:06;;;;;;;;;;;-2.40;99.90;;;;;;4978611;28;19933;-70
2024/01/17 07:47:34;;;;;;;;;;;-2.50;99.90;;;;;;4977696;28;19937;-72
2024/01/17 07:50:02;;;;;;;;;;;-2.50;99.90;;;;;;4977961;28;19933;-69
2024/01/17 07:52:31;;;;;;;;;;;-2.50;99.90;;;;;;4977479;28;19933;-70
2024/01/17 07:54:59;;;;;;;;;;;-2.50;99.90;;;;;;4978846;28;19925;-69
2024/01/17 07:57:27;;;;;;;;;;;-2.50;99.90;;;;;;4978556;28;19926;-69
2024/01/17 07:59:54;;;;;;;;;;;-2.50;99.90;;;;;;4978703;28;19978;-71
2024/01/17 08:02:22;;;;;;;;;;;-2.40;99.90;;;;;;4976184;28;20430;-71
2024/01/17 08:04:52;;;;;;;;;;;-2.40;99.90;;;;;;4977763;28;19934;-68
2024/01/17 08:07:24;;;;;;;;;;;-2.40;99.90;;;;;;4973214;28;20491;-70
2024/01/17 08:09:53;;;;;;;;;;;-2.30;99.90;;;;;;4977137;28;19930;-69
2024/01/17 08:12:25;;;;;;;;;;;-2.30;99.90;;;;;;4977098;28;19983;-72
2024/01/17 08:14:53;;;;;;;;;;;-2.30;99.90;;;;;;4977390;28;20491;-69
2024/01/17 08:17:20;;;;;;;;;;;-2.20;99.90;;;;;;4977180;28;19964;-71
2024/01/17 08:19:49;;;;;;;;;;;-2.20;99.90;;;;;;4977447;28;20024;-71
2024/01/17 08:22:17;;;;;;;;;;;-2.20;99.90;;;;;;4977452;28;19934;-71
2024/01/17 08:24:45;;;;;;;;;;;-2.20;99.90;;;;;;4977972;28;20320;-69
2024/01/17 08:27:15;;;;;;;;;;;-2.30;99.90;;;;;;4977345;28;19987;-68
2024/01/17 08:29:45;;;;;;;;;;;-2.30;99.90;;;;;;4977927;28;19934;-70
2024/01/17 08:32:13;;;;;;;;;;;-2.30;99.90;;;;;;4977453;28;19933;-70
2024/01/17 08:34:41;;;;;;;;;;;-2.20;99.90;;;;;;4977555;28;19932;-68
2024/01/17 08:37:09;;;;;;;;;;;-2.00;99.90;;;;;;4977088;28;20229;-68
2024/01/17 08:39:36;;;;;;;;;;;-2.00;99.90;;;;;;4977258;28;19938;-71
2024/01/17 08:42:04;;;;;;;;;;;-2.00;99.90;;;;;;4976753;28;19940;-68
2024/01/17 08:44:33;;;;;;;;;;;-2.00;99.90;;;;;;4977251;28;19936;-67
2024/01/17 08:47:02;;;;;;;;;;;-2.00;99.90;;;;;;4976288;28;19933;-69
2024/01/17 08:49:30;;;;;;;;;;;-2.00;99.90;;;;;;4976746;28;19938;-70
2024/01/17 08:51:59;;;;;;;;;;;-2.00;99.90;;;;;;4977863;28;19982;-71
2024/01/17 08:54:27;;;;;;;;;;;-1.90;99.90;;;;;;4977291;28;19926;-68
2024/01/17 08:56:54;;;;;;;;;;;-1.90;99.90;;;;;;4977961;28;19934;-71
2024/01/17 08:59:22;;;;;;;;;;;-2.00;99.90;;;;;;4977358;28;20408;-71
2024/01/17 09:01:52;;;;;;;;;;;-1.90;99.90;;;;;;4976821;28;19934;-72
2024/01/17 09:04:20;;;;;;;;;;;-2.00;99.90;;;;;;4977295;28;20555;-69
2024/01/17 09:06:48;;;;;;;;;;;-1.90;99.90;;;;;;4980819;28;19934;-72
2024/01/17 09:09:16;;;;;;;;;;;-1.80;99.90;;;;;;4981653;28;19930;-69
2024/01/17 09:11:45;;;;;;;;;;;-1.70;99.90;;;;;;4981860;28;19934;-71
2024/01/17 09:14:12;;;;;;;;;;;-1.70;99.90;;;;;;4981051;28;19933;-66
2024/01/17 09:16:40;;;;;;;;;;;-1.60;99.90;;;;;;4980441;28;19934;-69
2024/01/17 09:19:10;;;;;;;;;;;-1.50;99.90;;;;;;4981402;28;19936;-68
2024/01/17 09:21:38;;;;;;;;;;;-1.50;99.90;;;;;;4980827;28;19930;-71
2024/01/17 09:24:06;;;;;;;;;;;-1.40;99.90;;;;;;4980593;28;19933;-68
2024/01/17 09:26:34;;;;;;;;;;;-1.40;99.90;;;;;;4979093;28;19934;-71
2024/01/17 09:29:03;;;;;;;;;;;-1.30;99.90;;;;;;4980021;28;20017;-72
2024/01/17 09:31:31;;;;;;;;;;;-1.30;99.90;;;;;;4978661;28;19934;-70
2024/01/17 09:33:58;;;;;;;;;;;-1.30;99.90;;;;;;4979712;28;19926;-70
2024/01/17 09:36:28;;;;;;;;;;;-1.30;99.90;;;;;;4979849;28;19926;-69
2024/01/17 09:38:56;;;;;;;;;;;-1.30;99.90;;;;;;4980498;28;19957;-69
2024/01/17 09:41:25;;;;;;;;;;;-1.30;99.90;;;;;;4979817;28;19937;-68
2024/01/17 09:43:53;;;;;;;;;;;-1.30;99.90;;;;;;4979079;28;19934;-70
2024/01/17 09:46:21;;;;;;;;;;;-1.40;99.90;;;;;;4980827;28;20079;-68
2024/01/17 09:48:49;;;;;;;;;;;-1.40;99.90;;;;;;4980084;28;19965;-68
2024/01/17 09:51:21;;;;;;;;;;;-1.30;99.90;;;;;;4980669;28;20293;-70
2024/01/17 09:53:51;;;;;;;;;;;-1.40;99.90;;;;;;4979842;28;19930;-68
2024/01/17 09:56:21;;;;;;;;;;;-1.30;99.90;;;;;;4979456;28;20105;-70
2024/01/17 09:58:51;;;;;;;;;;;-1.30;99.90;;;;;;4979283;28;19929;-69
2024/01/17 10:01:19;;;;;;;;;;;-1.30;99.90;;;;;;4979092;28;19934;-71
2024/01/17 10:03:47;;;;;;;;;;;-1.30;99.90;;;;;;4980264;28;19929;-68
2024/01/17 10:06:15;;;;;;;;;;;-1.20;99.90;;;;;;4979285;28;20028;-68
2024/01/17 10:08:44;;;;;;;;;;;-1.10;99.90;;;;;;4979460;28;19941;-70
2024/01/17 10:11:13;;;;;;;;;;;-1.10;99.90;;;;;;4981007;28;19934;-68
2024/01/17 10:13:41;;;;;;;;;;;-1.20;99.90;;;;;;4979664;28;19996;-69
2024/01/17 10:16:09;;;;;;;;;;;-1.30;99.90;;;;;;4978985;28;19941;-71
2024/01/17 10:18:37;;;;;;;;;;;-1.20;99.90;;;;;;4979344;28;19934;-68
2024/01/17 10:21:05;;;;;;;;;;;-1.30;99.90;;;;;;4979385;28;19934;-68
2024/01/17 10:23:33;;;;;;;;;;;-1.20;99.90;;;;;;4979224;28;20346;-71
2024/01/17 10:26:01;;;;;;;;;;;-1.20;99.90;;;;;;4978910;28;20010;-70
2024/01/17 10:28:32;;;;;;;;;;;-1.20;99.90;;;;;;4979880;28;19926;-71
2024/01/17 10:31:02;;;;;;;;;;;-1.10;99.90;;;;;;4978774;28;19933;-71
2024/01/17 10:33:30;;;;;;;;;;;-1.20;99.90;;;;;;4979486;28;20031;-74
2024/01/17 10:35:58;;;;;;;;;;;-1.10;99.90;;;;;;4979064;28;20281;-73
2024/01/17 10:38:31;;;;;;;;;;;-1.10;99.90;;;;;;4980755;28;19926;-74
2024/01/17 10:41:04;;;;;;;;;;;-1.10;99.90;;;;;;4980058;28;19934;-72
2024/01/17 10:43:33;;;;;;;;;;;-1.00;99.90;;;;;;4981210;28;20024;-69
2024/01/17 10:46:01;;;;;;;;;;;-1.00;99.90;;;;;;4978556;28;19937;-69
2024/01/17 10:48:30;;;;;;;;;;;-0.90;99.90;;;;;;4979293;28;19926;-70
2024/01/17 10:51:00;;;;;;;;;;;-0.90;99.90;;;;;;4979837;28;20027;-73
2024/01/17 10:53:30;;;;;;;;;;;-0.90;99.90;;;;;;4978345;28;20414;-71
2024/01/17 10:56:18;;;;;;;;;;;-0.90;99.90;;;;;;4979708;28;20791;-70
2024/01/17 10:58:50;;;;;;;;;;;-0.90;99.90;;;;;;4980199;28;19934;-71
2024/01/17 11:01:21;;;;;;;;;;;-0.80;99.90;;;;;;4978547;28;19934;-72
2024/01/17 11:03:50;;;;;;;;;;;-0.80;99.90;;;;;;4979547;28;19930;-71
2024/01/17 11:06:21;;;;;;;;;;;-0.70;99.90;;;;;;4980106;28;20387;-70
2024/01/17 11:08:50;;;;;;;;;;;-0.70;99.90;;;;;;4979237;28;19938;-69
2024/01/17 11:11:19;;;;;;;;;;;-0.80;99.90;;;;;;4979883;28;19934;-69
2024/01/17 11:13:48;;;;;;;;;;;-0.80;99.90;;;;;;4978186;28;19933;-72
2024/01/17 11:16:18;;;;;;;;;;;-0.80;99.90;;;;;;4978319;28;19933;-69
2024/01/17 11:18:46;;;;;;;;;;;-0.70;99.90;;;;;;4979551;28;19980;-72
2024/01/17 11:21:16;;;;;;;;;;;-0.70;99.90;;;;;;4978033;28;19933;-71
2024/01/17 11:23:48;;;;;;;;;;;-0.80;99.90;;;;;;4978586;28;19941;-71
2024/01/17 11:26:21;;;;;;;;;;;-0.80;99.90;;;;;;4979024;28;19940;-73
2024/01/17 11:28:57;;;;;;;;;;;-0.80;99.90;;;;;;4979062;28;20414;-70
2024/01/17 11:31:36;;;;;;;;;;;-0.80;99.90;;;;;;4978648;28;19929;-71
2024/01/17 11:34:04;;;;;;;;;;;-0.70;99.90;;;;;;4977486;28;19933;-68
2024/01/17 11:36:46;;;;;;;;;;;-0.70;99.90;;;;;;4976918;28;19929;-70
2024/01/17 11:39:17;;;;;;;;;;;-0.60;99.90;;;;;;4977793;28;19937;-72
2024/01/17 11:41:47;;;;;;;;;;;-0.60;99.90;;;;;;4977876;28;20482;-73
2024/01/17 11:44:15;;;;;;;;;;;-0.40;99.90;;;;;;4978213;28;21228;-70
2024/01/17 11:46:48;;;;;;;;;;;-0.40;99.90;;;;;;4978899;28;19934;-71
2024/01/17 11:49:15;;;;;;;;;;;-0.40;99.90;;;;;;4977638;28;19941;-70
2024/01/17 11:51:44;;;;;;;;;;;-0.40;99.90;;;;;;4977751;28;19929;-73
2024/01/17 11:54:13;;;;;;;;;;;-0.40;99.90;;;;;;4977442;28;19933;-71
2024/01/17 11:56:41;;;;;;;;;;;-0.30;99.90;;;;;;4978394;28;20024;-73
2024/01/17 11:59:12;;;;;;;;;;;-0.30;99.90;;;;;;4978205;28;19933;-69
2024/01/17 12:01:41;;;;;;;;;;;-0.30;99.90;;;;;;4977784;28;20042;-70
2024/01/17 12:04:12;;;;;;;;;;;-0.40;99.90;;;;;;4976842;28;20578;-74
2024/01/17 12:06:40;;;;;;;;;;;-0.30;99.90;;;;;;4977176;28;19934;-69
2024/01/17 12:09:18;;;;;;;;;;;-0.30;99.90;;;;;;4977791;28;21321;-72
2024/01/17 12:11:50;;;;;;;;;;;-0.30;99.90;;;;;;4978035;28;19933;-70
2024/01/17 12:14:18;;;;;;;;;;;-0.30;99.90;;;;;;4977869;28;19965;-71
2024/01/17 12:16:47;;;;;;;;;;;-0.30;99.90;;;;;;4976631;28;20481;-73
2024/01/17 12:19:17;;;;;;;;;;;-0.30;99.90;;;;;;4977684;28;19934;-71
2024/01/17 12:21:45;;;;;;;;;;;-0.30;99.90;;;;;;4977153;28;19977;-72
2024/01/17 12:24:12;;;;;;;;;;;-0.30;99.90;;;;;;4976537;28;19977;-69
2024/01/17 12:26:41;;;;;;;;;;;-0.30;99.90;;;;;;4977972;28;20075;-73
2024/01/17 12:29:09;;;;;;;;;;;-0.20;99.90;;;;;;4976775;28;19930;-70
2024/01/17 12:31:37;;;;;;;;;;;-0.20;99.90;;;;;;4976516;28;19938;-70
2024/01/17 12:34:06;;;;;;;;;;;-0.20;99.90;;;;;;4977796;28;19938;-72
2024/01/17 12:36:36;;;;;;;;;;;-0.20;99.90;;;;;;4976656;28;19953;-71
2024/01/17 12:39:05;;;;;;;;;;;-0.20;99.90;;;;;;4976300;28;19934;-72
2024/01/17 12:41:35;;;;;;;;;;;-0.20;99.90;;;;;;4976865;28;19930;-70
2024/01/17 12:44:05;;;;;;;;;;;-0.10;99.90;;;;;;4976004;28;19933;-72
2024/01/17 12:46:33;;;;;;;;;;;-0.10;99.90;;;;;;4976078;28;20408;-71
2024/01/17 12:49:01;;;;;;;;;;;-0.10;99.90;;;;;;4977394;28;20063;-72
2024/01/17 12:51:31;;;;;;;;;;;-0.10;99.90;;;;;;4976642;28;19941;-71
2024/01/17 12:54:04;;;;;;;;;;;-0.10;99.90;;;;;;4975605;28;19926;-71
2024/01/17 12:56:32;;;;;;;;;;;-0.10;99.90;;;;;;4976533;28;20305;-71
2024/01/17 12:59:02;;;;;;;;;;;-0.10;99.90;;;;;;4977549;28;19940;-73
2024/01/17 13:01:31;;;;;;;;;;;-0.10;99.90;;;;;;4975717;28;19980;-72
2024/01/17 13:04:05;;;;;;;;;;;-0.10;99.90;;;;;;4975942;28;19936;-72
2024/01/17 13:06:43;;;;;;;;;;;-0.10;99.90;;;;;;4976416;28;19934;-71
2024/01/17 13:09:17;;;;;;;;;;;-0.10;99.90;;;;;;4976786;28;19940;-74
2024/01/17 13:11:49;;;;;;;;;;;-0.10;99.90;;;;;;4976833;28;19997;-70
2024/01/17 13:14:18;;;;;;;;;;;-0.10;99.90;;;;;;4976084;28;20467;-74
2024/01/17 13:16:46;;;;;;;;;;;-0.10;99.90;;;;;;4977188;28;19933;-72
2024/01/17 13:19:14;;;;;;;;;;;0.00;99.90;;;;;;4977003;28;19937;-73
2024/01/17 13:21:42;;;;;;;;;;;0.00;99.90;;;;;;4977202;28;20167;-72
2024/01/17 13:24:10;;;;;;;;;;;0.00;99.90;;;;;;4976533;28;19933;-71
2024/01/17 13:26:40;;;;;;;;;;;0.10;99.90;;;;;;4977253;28;20684;-71
2024/01/17 13:29:09;;;;;;;;;;;0.10;99.90;;;;;;4976187;28;19933;-69
2024/01/17 13:31:38;;;;;;;;;;;0.10;99.90;;;;;;4975558;28;20405;-71
2024/01/17 13:34:05;;;;;;;;;;;0.00;99.90;;;;;;4976390;28;19934;-71
2024/01/17 13:36:34;;;;;;;;;;;0.10;99.90;;;;;;4976564;28;20922;-72
2024/01/17 13:39:02;;;;;;;;;;;0.10;99.90;;;;;;4976082;28;19940;-71
2024/01/17 13:41:33;;;;;;;;;;;0.10;99.90;;;;;;4974069;28;19925;-71
2024/01/17 13:44:03;;;;;;;;;;;0.10;99.90;;;;;;4976844;28;19978;-71
2024/01/17 13:46:31;;;;;;;;;;;0.20;99.90;;;;;;4976230;28;19926;-72
2024/01/17 13:48:59;;;;;;;;;;;0.20;99.90;;;;;;4976971;28;20289;-70
2024/01/17 13:51:30;;;;;;;;;;;0.20;99.90;;;;;;4978342;28;19926;-70
2024/01/17 13:54:04;;;;;;;;;;;0.20;99.90;;;;;;4979423;28;19930;-70
2024/01/17 13:56:32;;;;;;;;;;;0.20;99.90;;;;;;4978867;28;19941;-68
2024/01/17 13:59:03;;;;;;;;;;;0.20;99.90;;;;;;4979920;28;19934;-71
2024/01/17 14:01:31;;;;;;;;;;;0.20;99.90;;;;;;4977674;28;20024;-69
2024/01/17 14:03:59;;;;;;;;;;;0.30;99.90;;;;;;4980461;28;19933;-69
2024/01/17 14:06:27;;;;;;;;;;;0.20;99.90;;;;;;4979102;28;19956;-68
2024/01/17 14:08:55;;;;;;;;;;;0.30;99.90;;;;;;4979754;28;19949;-68
2024/01/17 14:11:23;;;;;;;;;;;0.30;99.90;;;;;;4979107;28;19929;-70
2024/01/17 14:13:50;;;;;;;;;;;0.40;99.90;;;;;;4978586;28;19933;-73
2024/01/17 14:16:20;;;;;;;;;;;0.40;99.90;;;;;;4978906;28;19933;-71
2024/01/17 14:18:48;;;;;;;;;;;0.30;99.90;;;;;;4979009;28;19938;-71
2024/01/17 14:21:16;;;;;;;;;;;0.60;99.90;;;;;;4979587;28;19941;-68
2024/01/17 14:23:44;;;;;;;;;;;0.90;99.90;;;;;;4976732;28;20184;-73
2024/01/17 14:26:12;;;;;;;;;;;2.00;99.90;;;;;;4979417;28;19941;-73
2024/01/17 14:28:40;;;;;;;;;;;2.00;99.90;;;;;;4979346;28;19930;-71